Terminal Aerodrome Forecast
Issued by NWS

Home | Current Version | Previous Version | Text Only | Print | Product List | Glossary On
Versions: 1 2 3 4 5 6 7 8 9 10 11 12 13
000
FTUS46 KSGX 271134
TAFPSP
TAF
KPSP 271134Z 2712/2812 VRB05KT P6SM SCT060 BKN080
     FM272000 VRB05KT P6SM -SHRA SCT030 OVC060
     FM280500 33006KT P6SM SCT040 SCT060=

USA.gov is the U.S. government's official web portal to all federal, state and local government web resources and services.